createdAt,value
2022-10-12T00:01:44.129Z,15.90
2022-10-12T00:04:30.780Z,16.85
2022-10-12T00:07:17.144Z,17.38
2022-10-12T00:10:03.634Z,16.15
2022-10-12T00:12:49.697Z,15.85
2022-10-12T00:15:40.274Z,14.40
2022-10-12T00:18:26.528Z,13.32
2022-10-12T00:21:17.323Z,15.00
2022-10-12T00:24:03.932Z,16.10
2022-10-12T00:26:50.937Z,14.95
2022-10-12T00:32:23.220Z,15.52
2022-10-12T00:35:09.374Z,16.27
2022-10-12T00:37:56.073Z,15.45
2022-10-12T00:40:42.685Z,16.10
2022-10-12T00:43:34.285Z,16.60
2022-10-12T00:46:28.264Z,16.90
2022-10-12T00:49:25.656Z,16.17
2022-10-12T00:52:15.671Z,16.73
2022-10-12T00:55:02.840Z,15.65
2022-10-12T01:00:38.059Z,16.03
2022-10-12T01:03:24.998Z,16.45
2022-10-12T01:06:11.864Z,17.90
2022-10-12T01:08:58.744Z,15.73
2022-10-12T01:11:45.212Z,16.30
2022-10-12T01:14:31.389Z,16.60
2022-10-12T01:17:26.593Z,16.42
2022-10-12T01:20:37.541Z,15.75
2022-10-12T01:23:42.318Z,16.85
2022-10-12T01:26:40.465Z,14.57
2022-10-12T01:29:35.646Z,16.25
2022-10-12T01:32:23.755Z,16.33
2022-10-12T01:35:28.948Z,17.15
2022-10-12T01:38:28.926Z,16.50
2022-10-12T01:41:29.798Z,15.88
2022-10-12T01:44:23.174Z,16.80
2022-10-12T01:47:09.417Z,16.92
2022-10-12T01:49:55.472Z,16.45
2022-10-12T01:53:20.566Z,16.33
2022-10-12T01:56:31.153Z,16.15
2022-10-12T01:59:33.994Z,16.38
2022-10-12T02:02:25.465Z,16.70
2022-10-12T02:05:27.000Z,16.55
2022-10-12T02:08:32.708Z,16.60
2022-10-12T02:11:22.990Z,15.77
2022-10-12T02:14:25.928Z,16.45
2022-10-12T02:17:15.152Z,16.75
2022-10-12T02:20:04.005Z,17.88
2022-10-12T02:22:52.066Z,17.30
2022-10-12T02:25:39.994Z,18.17
2022-10-12T02:28:29.754Z,17.90
2022-10-12T02:31:41.674Z,16.92
2022-10-12T02:34:53.863Z,16.92
2022-10-12T02:37:51.891Z,15.90
2022-10-12T02:40:43.477Z,16.95
2022-10-12T02:43:44.442Z,15.70
2022-10-12T02:46:33.409Z,15.43
2022-10-12T02:49:21.125Z,17.20
2022-10-12T02:52:08.357Z,19.15
2022-10-12T02:54:54.337Z,18.42
2022-10-12T02:57:40.494Z,20.52
2022-10-12T03:00:26.404Z,20.33
2022-10-12T03:03:12.557Z,20.88
2022-10-12T03:05:58.610Z,21.48
2022-10-12T03:08:44.361Z,20.95
2022-10-12T03:11:30.677Z,22.40
2022-10-12T03:14:17.513Z,22.13
2022-10-12T03:17:04.449Z,22.20
2022-10-12T03:19:50.753Z,22.67
2022-10-12T03:22:36.653Z,24.40
2022-10-12T03:25:22.570Z,23.73
2022-10-12T03:28:08.916Z,24.10
2022-10-12T03:30:55.440Z,22.90
2022-10-12T03:33:41.542Z,22.20
2022-10-12T03:36:27.790Z,23.13
2022-10-12T03:39:14.284Z,32.35
2022-10-12T03:42:00.245Z,23.98
2022-10-12T03:44:46.249Z,56.47
2022-10-12T03:47:32.062Z,24.95
2022-10-12T03:50:18.070Z,24.33
2022-10-12T03:53:05.969Z,23.23
2022-10-12T03:55:51.886Z,22.98
2022-10-12T03:58:37.901Z,23.55
2022-10-12T04:01:24.089Z,23.88
2022-10-12T04:04:11.230Z,24.00
2022-10-12T04:06:57.380Z,25.58
2022-10-12T04:09:43.303Z,25.77
2022-10-12T04:12:29.184Z,30.93
2022-10-12T04:15:18.191Z,27.33
2022-10-12T04:18:04.785Z,27.08
2022-10-12T04:20:51.006Z,25.27
2022-10-12T04:23:37.424Z,26.13
2022-10-12T04:26:23.362Z,26.87
2022-10-12T04:29:13.181Z,26.85
2022-10-12T04:31:59.751Z,34.53
2022-10-12T04:34:45.649Z,29.27
2022-10-12T04:37:32.217Z,30.02
2022-10-12T04:40:18.382Z,27.33
2022-10-12T04:43:04.675Z,28.52
2022-10-12T04:45:58.801Z,29.10
2022-10-12T04:48:44.674Z,28.13
2022-10-12T04:51:30.556Z,27.47
2022-10-12T04:54:16.492Z,28.98
2022-10-12T04:57:02.494Z,28.17
2022-10-12T04:59:48.565Z,27.55
2022-10-12T05:02:34.496Z,37.67
2022-10-12T05:05:20.568Z,32.35
2022-10-12T05:08:06.805Z,28.48
2022-10-12T05:10:53.111Z,26.40
2022-10-12T05:13:39.262Z,28.65
2022-10-12T05:16:25.408Z,28.13
2022-10-12T05:19:11.650Z,26.58
2022-10-12T05:21:57.583Z,27.33
2022-10-12T05:24:43.447Z,26.63
2022-10-12T05:27:29.453Z,27.75
2022-10-12T05:30:15.859Z,28.67
2022-10-12T05:33:02.105Z,28.40
2022-10-12T05:35:56.077Z,28.70
2022-10-12T05:38:42.689Z,28.27
2022-10-12T05:41:28.710Z,28.65
2022-10-12T05:44:14.469Z,28.80
2022-10-12T05:47:00.543Z,27.47
2022-10-12T05:49:46.466Z,26.50
2022-10-12T05:52:32.419Z,28.20
2022-10-12T05:55:18.461Z,28.70
2022-10-12T05:58:04.336Z,28.10
2022-10-12T06:00:50.524Z,29.60
2022-10-12T06:03:36.610Z,27.85
2022-10-12T06:06:23.762Z,30.43
2022-10-12T06:09:10.193Z,30.38
2022-10-12T06:11:56.453Z,30.00
2022-10-12T06:14:42.526Z,29.58
2022-10-12T06:17:28.570Z,29.08
2022-10-12T06:20:14.572Z,29.38
2022-10-12T06:23:00.545Z,29.13
2022-10-12T06:25:48.082Z,28.37
2022-10-12T06:28:34.011Z,28.13
2022-10-12T06:31:19.962Z,28.80
2022-10-12T06:34:06.057Z,29.63
2022-10-12T06:36:52.641Z,28.15
2022-10-12T06:39:38.585Z,27.55
2022-10-12T06:42:24.734Z,28.80
2022-10-12T06:45:12.730Z,29.70
2022-10-12T06:47:58.683Z,29.42
2022-10-12T06:50:44.982Z,29.45
2022-10-12T06:53:32.938Z,29.60
2022-10-12T06:56:18.694Z,29.85
2022-10-12T06:59:04.692Z,28.33
2022-10-12T07:01:50.936Z,28.37
2022-10-12T07:04:37.328Z,30.00
2022-10-12T07:07:23.507Z,28.48
2022-10-12T07:10:09.619Z,27.60
2022-10-12T07:12:55.650Z,29.42
2022-10-12T07:15:41.784Z,29.27
2022-10-12T07:18:27.602Z,27.33
2022-10-12T07:21:13.650Z,28.40
2022-10-12T07:23:59.774Z,29.90
2022-10-12T07:26:45.714Z,28.77
2022-10-12T07:29:32.471Z,28.45
2022-10-12T07:32:18.825Z,30.83
2022-10-12T07:35:05.509Z,31.92
2022-10-12T07:37:51.459Z,31.08
2022-10-12T07:40:37.476Z,31.80
2022-10-12T07:43:23.509Z,29.98
2022-10-12T07:46:10.285Z,30.20
2022-10-12T07:51:44.295Z,31.40
2022-10-12T07:54:30.713Z,29.80
2022-10-12T07:57:16.761Z,29.52
2022-10-12T08:00:02.886Z,28.33
2022-10-12T08:02:58.050Z,29.05
2022-10-12T08:05:43.964Z,28.80
2022-10-12T08:08:29.873Z,30.23
2022-10-12T08:11:16.642Z,29.90
2022-10-12T08:14:03.117Z,28.00
2022-10-12T08:16:49.290Z,26.75
2022-10-12T08:19:36.593Z,27.27
2022-10-12T08:22:22.885Z,25.85
2022-10-12T08:25:09.247Z,24.10
2022-10-12T08:27:55.516Z,23.77
2022-10-12T08:30:41.719Z,24.27
2022-10-12T08:33:29.403Z,23.35
2022-10-12T08:36:15.413Z,23.50
2022-10-12T08:39:02.455Z,22.38
2022-10-12T08:41:56.159Z,21.38
2022-10-12T08:45:00.871Z,21.17
2022-10-12T08:48:14.938Z,21.40
2022-10-12T08:51:11.386Z,20.77
2022-10-12T08:54:14.463Z,30.93
2022-10-12T08:57:00.901Z,21.52
2022-10-12T08:59:47.541Z,20.92
2022-10-12T09:02:33.536Z,20.67
2022-10-12T09:05:27.568Z,19.53
2022-10-12T09:08:45.797Z,18.88
2022-10-12T09:11:42.632Z,19.63
2022-10-12T09:14:33.716Z,18.80
2022-10-12T09:17:40.601Z,17.58
2022-10-12T09:20:31.244Z,18.63
2022-10-12T09:23:26.723Z,19.58
2022-10-12T09:26:37.333Z,17.58
2022-10-12T09:29:29.878Z,18.90
2022-10-12T09:32:39.241Z,17.48
2022-10-12T09:35:25.466Z,18.63
2022-10-12T09:38:11.977Z,17.17
2022-10-12T09:43:45.241Z,18.05
2022-10-12T09:46:45.692Z,17.70
2022-10-12T09:49:45.965Z,18.25
2022-10-12T09:52:42.678Z,17.42
2022-10-12T09:55:28.668Z,17.05
2022-10-12T09:58:21.061Z,17.38
2022-10-12T10:01:21.245Z,17.95
2022-10-12T10:04:24.358Z,17.80
2022-10-12T10:07:19.034Z,18.35
2022-10-12T10:10:05.121Z,18.63
2022-10-12T10:13:01.250Z,19.40
2022-10-12T10:16:01.581Z,18.52
2022-10-12T10:18:51.007Z,18.85
2022-10-12T10:21:40.975Z,18.45
2022-10-12T10:24:30.969Z,18.58
2022-10-12T10:27:31.647Z,17.77
2022-10-12T10:30:29.856Z,17.15
2022-10-12T10:33:19.638Z,16.27
2022-10-12T10:36:21.588Z,17.63
2022-10-12T10:39:21.496Z,17.80
2022-10-12T10:42:16.374Z,15.43
2022-10-12T10:45:07.292Z,17.23
2022-10-12T10:48:01.489Z,16.95
2022-10-12T10:51:00.228Z,15.38
2022-10-12T10:53:49.089Z,16.45
2022-10-12T10:56:35.509Z,16.08
2022-10-12T10:59:23.778Z,17.38
2022-10-12T11:02:45.211Z,14.98
2022-10-12T11:05:38.719Z,15.45
2022-10-12T11:08:30.466Z,16.55
2022-10-12T11:11:25.376Z,15.98
2022-10-12T11:14:21.902Z,15.63
2022-10-12T11:17:17.065Z,16.48
2022-10-12T11:20:19.882Z,16.50
2022-10-12T11:23:15.278Z,15.63
2022-10-12T11:26:14.327Z,14.23
2022-10-12T11:29:00.770Z,16.63
2022-10-12T11:31:59.082Z,14.57
2022-10-12T11:34:59.009Z,15.35
2022-10-12T11:37:53.946Z,15.18
2022-10-12T11:41:31.457Z,14.88
2022-10-12T11:44:12.431Z,15.30
2022-10-12T11:47:01.377Z,15.07
2022-10-12T11:50:03.088Z,14.48
2022-10-12T11:52:52.753Z,16.25
2022-10-12T11:55:51.224Z,13.95
2022-10-12T11:58:59.879Z,14.93
2022-10-12T12:01:56.938Z,15.30
2022-10-12T12:04:46.101Z,13.57
2022-10-12T12:07:44.137Z,14.38
2022-10-12T12:10:37.094Z,14.52
2022-10-12T12:13:26.826Z,13.95
2022-10-12T12:16:13.189Z,13.10
2022-10-12T12:19:16.358Z,14.40
2022-10-12T12:22:17.704Z,13.27
2022-10-12T12:25:12.420Z,13.80
2022-10-12T12:28:25.655Z,13.32
2022-10-12T12:31:25.518Z,12.77
2022-10-12T12:34:17.299Z,13.20
2022-10-12T12:37:12.576Z,13.52
2022-10-12T12:39:59.681Z,13.40
2022-10-12T12:45:32.182Z,11.90
2022-10-12T12:48:47.305Z,13.95
2022-10-12T12:51:37.741Z,12.15
2022-10-12T12:54:24.802Z,18.85
2022-10-12T12:57:32.457Z,14.35
2022-10-12T13:03:56.554Z,11.80
2022-10-12T13:07:07.684Z,12.68
2022-10-12T13:09:59.676Z,12.35
2022-10-12T13:13:07.006Z,12.48
2022-10-12T13:17:30.573Z,11.77
2022-10-12T13:19:55.190Z,12.90
2022-10-12T13:22:42.354Z,12.75
2022-10-12T13:28:22.767Z,12.25
2022-10-12T13:31:18.219Z,12.93
2022-10-12T13:34:17.352Z,12.63
2022-10-12T13:37:09.397Z,13.10
2022-10-12T13:39:56.187Z,12.68
2022-10-12T13:42:42.290Z,12.63
2022-10-12T13:45:28.417Z,13.00
2022-10-12T13:48:39.886Z,12.60
2022-10-12T13:51:30.046Z,13.15
2022-10-12T13:54:26.218Z,12.27
2022-10-12T13:57:27.040Z,13.30
2022-10-12T14:00:16.337Z,12.18
2022-10-12T14:03:06.401Z,12.25
2022-10-12T14:05:56.319Z,13.43
2022-10-12T14:08:43.589Z,12.85
2022-10-12T14:11:29.722Z,13.93
2022-10-12T14:14:27.212Z,14.40
2022-10-12T14:17:18.038Z,13.77
2022-10-12T14:20:26.465Z,14.45
2022-10-12T14:23:21.370Z,15.43
2022-10-12T14:26:30.497Z,14.20
2022-10-12T14:29:45.622Z,14.38
2022-10-12T14:32:41.367Z,15.38
2022-10-12T14:35:31.089Z,14.07
2022-10-12T14:38:37.265Z,16.60
2022-10-12T14:41:50.405Z,17.02
2022-10-12T14:44:43.678Z,17.52
2022-10-12T14:47:40.485Z,17.90
2022-10-12T14:50:27.078Z,19.23
2022-10-12T14:53:15.305Z,17.52
2022-10-12T14:56:01.584Z,18.40
2022-10-12T14:58:48.397Z,20.25
2022-10-12T15:01:39.256Z,18.13
2022-10-12T15:04:28.313Z,19.90
2022-10-12T15:07:18.709Z,19.63
2022-10-12T15:10:05.112Z,17.90
2022-10-12T15:12:52.236Z,17.48
2022-10-12T15:15:42.514Z,19.25
2022-10-12T15:18:28.727Z,19.33
2022-10-12T15:21:14.965Z,19.77
2022-10-12T15:24:01.329Z,18.48
2022-10-12T15:26:47.344Z,19.67
2022-10-12T15:29:33.334Z,20.57
2022-10-12T15:32:19.414Z,18.27
2022-10-12T15:35:24.216Z,19.65
2022-10-12T15:38:11.073Z,19.45
2022-10-12T15:40:58.516Z,20.00
2022-10-12T15:46:30.533Z,18.85
2022-10-12T15:49:19.702Z,18.42
2022-10-12T15:52:09.612Z,18.75
2022-10-12T15:54:55.946Z,18.63
2022-10-12T15:57:41.977Z,18.73
2022-10-12T16:00:29.258Z,18.70
2022-10-12T16:03:20.213Z,18.50
2022-10-12T16:06:11.062Z,18.38
2022-10-12T16:08:57.230Z,18.65
2022-10-12T16:11:43.264Z,17.17
2022-10-12T16:14:29.926Z,17.45
2022-10-12T16:17:16.476Z,17.25
2022-10-12T16:20:02.721Z,15.98
2022-10-12T16:25:36.285Z,16.75
2022-10-12T16:28:23.719Z,16.55
2022-10-12T16:31:13.390Z,17.38
2022-10-12T16:33:59.513Z,16.98
2022-10-12T16:36:45.748Z,17.58
2022-10-12T16:39:31.972Z,17.90
2022-10-12T16:42:18.227Z,16.58
2022-10-12T16:45:04.593Z,17.63
2022-10-12T16:47:50.615Z,15.93
2022-10-12T16:50:40.651Z,16.90
2022-10-12T16:53:27.117Z,15.40
2022-10-12T16:56:13.147Z,15.20
2022-10-12T16:58:59.248Z,14.38
2022-10-12T17:01:44.940Z,14.55
2022-10-12T17:04:31.003Z,15.57
2022-10-12T17:07:17.749Z,15.60
2022-10-12T17:10:04.217Z,15.00
2022-10-12T17:12:50.331Z,14.38
2022-10-12T17:15:40.385Z,16.77
2022-10-12T17:18:26.486Z,15.35
2022-10-12T17:21:12.550Z,16.52
2022-10-12T17:23:59.553Z,15.60
2022-10-12T17:26:46.331Z,16.05
2022-10-12T17:29:33.444Z,14.93
2022-10-12T17:32:19.602Z,15.93
2022-10-12T17:35:06.064Z,15.40
2022-10-12T17:37:52.042Z,16.20
2022-10-12T17:40:39.643Z,15.43
2022-10-12T17:43:25.470Z,15.65
2022-10-12T17:46:11.628Z,16.08
2022-10-12T17:48:59.204Z,15.57
2022-10-12T17:51:48.656Z,15.65
2022-10-12T17:54:34.974Z,15.45
2022-10-12T17:57:21.305Z,16.02
2022-10-12T18:00:08.042Z,15.55
2022-10-12T18:02:58.524Z,15.07
2022-10-12T18:05:44.851Z,13.95
2022-10-12T18:08:30.887Z,16.02
2022-10-12T18:11:18.920Z,15.63
2022-10-12T18:14:09.301Z,14.98
2022-10-12T18:16:57.556Z,16.02
2022-10-12T18:19:45.781Z,15.25
2022-10-12T18:22:31.957Z,16.40
2022-10-12T18:25:18.050Z,15.40
2022-10-12T18:28:06.493Z,16.33
2022-10-12T18:30:52.323Z,17.23
2022-10-12T18:33:38.381Z,16.30
2022-10-12T18:36:25.245Z,16.92
2022-10-12T18:39:11.582Z,15.52
2022-10-12T18:41:57.797Z,16.23
2022-10-12T18:44:44.868Z,16.00
2022-10-12T18:47:30.923Z,16.20
2022-10-12T18:50:17.204Z,15.70
2022-10-12T18:53:03.975Z,16.27
2022-10-12T18:55:49.923Z,15.98
2022-10-12T18:58:38.129Z,15.40
2022-10-12T19:01:28.272Z,15.68
2022-10-12T19:04:14.381Z,15.48
2022-10-12T19:07:00.462Z,15.13
2022-10-12T19:09:46.481Z,15.37
2022-10-12T19:12:32.740Z,16.58
2022-10-12T19:15:18.709Z,14.70
2022-10-12T19:18:05.292Z,15.57
2022-10-12T19:20:51.186Z,14.68
2022-10-12T19:23:37.452Z,14.90
2022-10-12T19:26:26.704Z,14.43
2022-10-12T19:29:13.194Z,14.80
2022-10-12T19:31:59.593Z,15.50
2022-10-12T19:34:45.609Z,15.38
2022-10-12T19:37:32.414Z,16.15
2022-10-12T19:43:04.671Z,14.98
2022-10-12T19:45:51.197Z,14.25
2022-10-12T19:48:38.726Z,13.98
2022-10-12T19:51:26.235Z,14.88
2022-10-12T19:54:13.937Z,15.77
2022-10-12T19:56:59.990Z,16.13
2022-10-12T19:59:46.066Z,15.38
2022-10-12T20:02:32.862Z,16.07
2022-10-12T20:05:18.881Z,15.95
2022-10-12T20:08:04.962Z,12.88
2022-10-12T20:10:51.003Z,12.05
2022-10-12T20:13:37.472Z,12.50
2022-10-12T20:16:24.122Z,12.52
2022-10-12T20:19:10.134Z,13.32
2022-10-12T20:21:56.337Z,10.13
2022-10-12T20:24:42.790Z,12.15
2022-10-12T20:27:28.952Z,14.25
2022-10-12T20:30:15.607Z,9.18
2022-10-12T20:33:02.314Z,11.25
2022-10-12T20:35:49.881Z,11.30
2022-10-12T20:38:37.405Z,10.65
2022-10-12T20:41:25.005Z,11.95
2022-10-12T20:44:11.055Z,12.02
2022-10-12T20:46:57.224Z,14.30
2022-10-12T20:49:43.580Z,14.17
2022-10-12T20:52:29.515Z,14.00
2022-10-12T20:55:15.763Z,14.57
2022-10-12T20:58:01.896Z,15.60
2022-10-12T21:00:47.922Z,10.80
2022-10-12T21:03:34.734Z,12.47
2022-10-12T21:06:23.300Z,5.13
2022-10-12T21:09:14.110Z,7.93
2022-10-12T21:12:00.095Z,9.70
2022-10-12T21:14:46.142Z,10.45
2022-10-12T21:17:32.055Z,9.17
2022-10-12T21:20:18.101Z,8.23
2022-10-12T21:23:04.166Z,12.30
2022-10-12T21:25:50.570Z,8.87
2022-10-12T21:28:36.620Z,11.02
2022-10-12T21:31:22.827Z,11.37
2022-10-12T21:34:10.807Z,11.93
2022-10-12T21:36:56.994Z,14.38
2022-10-12T21:39:42.833Z,13.57
2022-10-12T21:42:29.026Z,14.82
2022-10-12T21:45:15.192Z,12.68
2022-10-12T21:48:01.126Z,14.00
2022-10-12T21:50:46.965Z,10.43
2022-10-12T21:53:34.809Z,10.63
2022-10-12T21:56:20.605Z,12.65
2022-10-12T21:59:06.828Z,13.23
2022-10-12T22:01:53.009Z,9.55
2022-10-12T22:04:38.861Z,8.03
2022-10-12T22:07:24.737Z,10.23
2022-10-12T22:10:11.537Z,8.43
2022-10-12T22:15:43.677Z,7.47
2022-10-12T22:18:30.708Z,8.18
2022-10-12T22:21:18.418Z,7.47
2022-10-12T22:24:05.053Z,9.73
2022-10-12T22:26:51.631Z,5.50
2022-10-12T22:29:37.654Z,6.78
2022-10-12T22:32:24.239Z,6.05
2022-10-12T22:35:10.533Z,7.57
2022-10-12T22:37:56.681Z,8.80
2022-10-12T22:40:42.958Z,12.05
2022-10-12T22:43:30.704Z,4.67
2022-10-12T22:46:17.857Z,4.93
2022-10-12T22:49:04.281Z,6.72
2022-10-12T22:51:50.517Z,7.88
2022-10-12T22:54:36.465Z,9.70
2022-10-12T22:57:22.460Z,6.50
2022-10-12T23:00:08.938Z,7.32
2022-10-12T23:05:48.335Z,8.80
2022-10-12T23:08:35.065Z,9.27
2022-10-12T23:11:25.889Z,8.80
2022-10-12T23:14:12.183Z,10.68
2022-10-12T23:16:58.350Z,11.07
2022-10-12T23:19:44.479Z,10.60
2022-10-12T23:22:30.847Z,12.00
2022-10-12T23:25:16.929Z,10.00
2022-10-12T23:28:03.098Z,9.75
2022-10-12T23:30:48.969Z,8.68
2022-10-12T23:33:35.846Z,11.15
2022-10-12T23:36:22.097Z,12.13
2022-10-12T23:39:08.312Z,13.13
2022-10-12T23:41:54.618Z,14.57
2022-10-12T23:44:40.548Z,15.07
2022-10-12T23:47:26.566Z,15.82
2022-10-12T23:50:12.609Z,13.75
2022-10-12T23:52:58.337Z,11.23
2022-10-12T23:55:44.477Z,11.93
2022-10-12T23:58:30.377Z,12.70
